createdAt,value
2022-08-26T00:00:59.195Z,3.90
2022-08-26T00:03:26.359Z,4.03
2022-08-26T00:05:54.106Z,4.63
2022-08-26T00:08:21.073Z,4.80
2022-08-26T00:10:47.458Z,4.53
2022-08-26T00:13:14.276Z,3.92
2022-08-26T00:15:41.554Z,3.95
2022-08-26T00:18:16.782Z,4.07
2022-08-26T00:20:48.801Z,3.80
2022-08-26T00:23:15.291Z,4.20
2022-08-26T00:25:42.799Z,3.90
2022-08-26T00:28:10.803Z,3.90
2022-08-26T00:30:38.369Z,4.28
2022-08-26T00:33:06.100Z,4.38
2022-08-26T00:35:34.651Z,4.25
2022-08-26T00:38:02.779Z,4.28
2022-08-26T00:40:33.952Z,4.30
2022-08-26T00:43:00.885Z,4.28
2022-08-26T00:45:28.499Z,3.90
2022-08-26T00:47:58.151Z,3.80
2022-08-26T00:50:33.722Z,4.40
2022-08-26T00:53:02.222Z,4.00
2022-08-26T00:55:39.493Z,4.03
2022-08-26T00:58:07.672Z,4.10
2022-08-26T01:00:34.890Z,4.10
2022-08-26T01:03:03.399Z,3.85
2022-08-26T01:05:32.463Z,4.00
2022-08-26T01:07:59.039Z,4.20
2022-08-26T01:10:28.119Z,4.18
2022-08-26T01:13:06.260Z,4.45
2022-08-26T01:15:37.442Z,4.47
2022-08-26T01:18:05.473Z,4.15
2022-08-26T01:20:41.654Z,4.10
2022-08-26T01:23:10.175Z,4.57
2022-08-26T01:25:43.180Z,4.57
2022-08-26T01:28:21.626Z,3.83
2022-08-26T01:30:48.580Z,4.63
2022-08-26T01:33:17.592Z,4.45
2022-08-26T01:35:44.898Z,4.05
2022-08-26T01:38:11.561Z,4.00
2022-08-26T01:40:39.112Z,5.05
2022-08-26T01:43:07.888Z,4.15
2022-08-26T01:45:36.500Z,4.20
2022-08-26T01:48:05.058Z,4.75
2022-08-26T01:50:33.967Z,4.38
2022-08-26T01:53:06.844Z,4.30
2022-08-26T01:55:34.641Z,4.20
2022-08-26T01:58:04.749Z,4.72
2022-08-26T02:00:32.063Z,4.10
2022-08-26T02:03:17.387Z,4.43
2022-08-26T02:05:55.875Z,4.60
2022-08-26T02:08:34.093Z,4.45
2022-08-26T02:11:00.528Z,4.80
2022-08-26T02:13:29.930Z,4.20
2022-08-26T02:15:56.856Z,4.18
2022-08-26T02:18:24.359Z,4.30
2022-08-26T02:20:53.020Z,4.43
2022-08-26T02:23:19.442Z,4.15
2022-08-26T02:25:55.729Z,4.60
2022-08-26T02:28:22.261Z,4.15
2022-08-26T02:30:55.431Z,4.35
2022-08-26T02:33:22.091Z,4.30
2022-08-26T02:35:48.683Z,4.95
2022-08-26T02:38:15.083Z,4.38
2022-08-26T02:40:43.672Z,4.35
2022-08-26T02:43:12.431Z,4.22
2022-08-26T02:45:40.090Z,4.32
2022-08-26T02:48:18.762Z,4.20
2022-08-26T02:50:45.990Z,4.63
2022-08-26T02:53:12.474Z,4.53
2022-08-26T02:55:42.170Z,4.45
2022-08-26T02:58:09.681Z,4.70
2022-08-26T03:00:37.753Z,4.30
2022-08-26T03:03:05.176Z,4.78
2022-08-26T03:05:31.566Z,4.45
2022-08-26T03:08:00.280Z,4.68
2022-08-26T03:10:27.088Z,4.57
2022-08-26T03:12:53.793Z,4.40
2022-08-26T03:15:20.402Z,4.53
2022-08-26T03:17:47.933Z,4.25
2022-08-26T03:20:15.580Z,4.35
2022-08-26T03:22:44.453Z,4.28
2022-08-26T03:25:13.248Z,4.65
2022-08-26T03:27:41.184Z,4.75
2022-08-26T03:30:30.208Z,4.18
2022-08-26T03:32:57.035Z,4.40
2022-08-26T03:35:23.408Z,4.78
2022-08-26T03:37:49.794Z,5.15
2022-08-26T03:40:16.250Z,4.03
2022-08-26T03:42:47.958Z,4.57
2022-08-26T03:45:15.879Z,4.85
2022-08-26T03:47:42.747Z,4.45
2022-08-26T03:50:11.079Z,4.90
2022-08-26T03:52:43.110Z,3.67
2022-08-26T03:55:10.850Z,4.20
2022-08-26T03:57:37.377Z,4.38
2022-08-26T04:00:06.799Z,4.68
2022-08-26T04:02:33.196Z,4.25
2022-08-26T04:05:00.106Z,5.22
2022-08-26T04:07:26.467Z,4.47
2022-08-26T04:09:57.446Z,5.32
2022-08-26T04:12:25.334Z,4.72
2022-08-26T04:14:53.444Z,4.55
2022-08-26T04:17:21.010Z,4.65
2022-08-26T04:19:53.409Z,5.05
2022-08-26T04:22:24.894Z,4.85
2022-08-26T04:24:51.682Z,5.50
2022-08-26T04:27:18.073Z,5.05
2022-08-26T04:29:46.129Z,4.70
2022-08-26T04:32:14.507Z,5.55
2022-08-26T04:34:43.177Z,4.95
2022-08-26T04:37:11.522Z,4.35
2022-08-26T04:39:38.099Z,5.35
2022-08-26T04:42:05.759Z,5.05
2022-08-26T04:44:35.369Z,5.25
2022-08-26T04:47:02.010Z,4.90
2022-08-26T04:49:35.155Z,4.97
2022-08-26T04:52:02.390Z,4.60
2022-08-26T04:54:28.892Z,5.65
2022-08-26T04:56:55.435Z,4.32
2022-08-26T04:59:22.625Z,4.70
2022-08-26T05:01:52.655Z,4.85
2022-08-26T05:04:20.555Z,5.25
2022-08-26T05:06:48.144Z,5.28
2022-08-26T05:09:15.496Z,4.78
2022-08-26T05:11:41.931Z,5.68
2022-08-26T05:14:08.314Z,5.03
2022-08-26T05:16:34.752Z,5.13
2022-08-26T05:19:01.449Z,5.05
2022-08-26T05:21:30.895Z,5.20
2022-08-26T05:23:57.492Z,5.20
2022-08-26T05:26:25.987Z,5.03
2022-08-26T05:28:54.965Z,4.85
2022-08-26T05:31:31.521Z,5.28
2022-08-26T05:33:59.478Z,5.22
2022-08-26T05:36:31.338Z,5.38
2022-08-26T05:38:57.903Z,4.85
2022-08-26T05:41:35.446Z,5.18
2022-08-26T05:44:06.373Z,4.80
2022-08-26T05:46:33.286Z,4.95
2022-08-26T05:49:00.906Z,4.82
2022-08-26T05:51:27.290Z,4.28
2022-08-26T05:53:58.742Z,4.35
2022-08-26T05:56:27.324Z,4.75
2022-08-26T05:58:54.906Z,4.72
2022-08-26T06:01:25.491Z,4.82
2022-08-26T06:03:55.675Z,4.90
2022-08-26T06:06:28.353Z,5.43
2022-08-26T06:08:59.006Z,4.82
2022-08-26T06:11:26.409Z,5.85
2022-08-26T06:14:03.069Z,5.15
2022-08-26T06:16:31.775Z,5.10
2022-08-26T06:18:58.223Z,5.30
2022-08-26T06:21:36.555Z,5.30
2022-08-26T06:24:27.984Z,5.18
2022-08-26T06:26:56.907Z,5.20
2022-08-26T06:29:25.779Z,6.20
2022-08-26T06:31:56.081Z,4.75
2022-08-26T06:34:23.154Z,6.20
2022-08-26T06:36:53.502Z,6.43
2022-08-26T06:39:20.436Z,6.75
2022-08-26T06:41:47.303Z,5.85
2022-08-26T06:44:14.830Z,5.78
2022-08-26T06:46:42.079Z,5.57
2022-08-26T06:49:11.231Z,5.28
2022-08-26T06:51:39.194Z,5.53
2022-08-26T06:54:07.207Z,6.38
2022-08-26T06:56:36.242Z,6.10
2022-08-26T06:59:03.795Z,6.18
2022-08-26T07:01:37.041Z,6.10
2022-08-26T07:04:10.632Z,5.68
2022-08-26T07:06:39.712Z,5.78
2022-08-26T07:09:09.700Z,5.75
2022-08-26T07:11:37.410Z,5.60
2022-08-26T07:14:04.389Z,5.55
2022-08-26T07:16:30.993Z,5.60
2022-08-26T07:18:57.614Z,5.53
2022-08-26T07:21:24.832Z,5.13
2022-08-26T07:23:55.430Z,6.00
2022-08-26T07:26:27.012Z,5.70
2022-08-26T07:28:56.395Z,5.97
2022-08-26T07:31:25.285Z,5.60
2022-08-26T07:33:52.781Z,5.88
2022-08-26T07:36:20.270Z,6.03
2022-08-26T07:38:48.050Z,6.43
2022-08-26T07:41:16.710Z,6.32
2022-08-26T07:43:43.598Z,5.13
2022-08-26T07:46:15.886Z,6.25
2022-08-26T07:48:46.073Z,6.22
2022-08-26T07:51:16.834Z,5.68
2022-08-26T07:53:43.940Z,5.80
2022-08-26T07:56:14.498Z,5.63
2022-08-26T07:58:40.951Z,5.22
2022-08-26T08:01:09.021Z,6.13
2022-08-26T08:03:35.492Z,6.20
2022-08-26T08:06:01.957Z,5.72
2022-08-26T08:08:29.145Z,6.30
2022-08-26T08:10:56.520Z,5.53
2022-08-26T08:13:23.573Z,5.95
2022-08-26T08:15:50.462Z,5.00
2022-08-26T08:18:17.906Z,5.70
2022-08-26T08:21:04.788Z,6.13
2022-08-26T08:23:34.592Z,6.30
2022-08-26T08:26:06.391Z,6.53
2022-08-26T08:28:35.346Z,6.05
2022-08-26T08:31:02.085Z,6.82
2022-08-26T08:33:32.529Z,5.93
2022-08-26T08:36:00.047Z,7.55
2022-08-26T08:38:27.324Z,6.75
2022-08-26T08:40:53.944Z,7.18
2022-08-26T08:43:39.295Z,7.32
2022-08-26T08:46:09.088Z,8.07
2022-08-26T08:48:37.683Z,7.68
2022-08-26T08:51:45.641Z,7.65
2022-08-26T08:54:13.073Z,8.88
2022-08-26T08:56:42.750Z,7.65
2022-08-26T08:59:24.050Z,7.43
2022-08-26T09:01:54.125Z,8.45
2022-08-26T09:04:51.553Z,8.18
2022-08-26T09:07:25.538Z,7.80
2022-08-26T09:09:59.290Z,7.20
2022-08-26T09:12:29.639Z,8.05
2022-08-26T09:15:11.411Z,7.65
2022-08-26T09:17:51.535Z,6.97
2022-08-26T09:20:41.010Z,7.32
2022-08-26T09:23:10.267Z,6.47
2022-08-26T09:26:00.218Z,7.85
2022-08-26T09:28:29.081Z,8.60
2022-08-26T09:31:13.038Z,7.55
2022-08-26T09:33:40.174Z,7.90
2022-08-26T09:36:24.682Z,8.00
2022-08-26T09:38:52.186Z,7.88
2022-08-26T09:41:26.239Z,7.90
2022-08-26T09:44:17.675Z,7.95
2022-08-26T09:46:52.222Z,8.82
2022-08-26T09:49:38.013Z,8.43
2022-08-26T09:52:23.420Z,9.25
2022-08-26T09:55:06.561Z,9.02
2022-08-26T09:57:46.072Z,9.77
2022-08-26T10:00:32.690Z,9.63
2022-08-26T10:03:01.594Z,9.70
2022-08-26T10:05:40.519Z,11.18
2022-08-26T10:08:24.711Z,10.25
2022-08-26T10:10:53.275Z,10.52
2022-08-26T10:13:37.933Z,10.70
2022-08-26T10:16:24.105Z,12.23
2022-08-26T10:19:13.741Z,10.63
2022-08-26T10:22:05.750Z,10.98
2022-08-26T10:24:37.795Z,10.15
2022-08-26T10:27:15.417Z,10.40
2022-08-26T10:29:47.374Z,13.55
2022-08-26T10:32:18.052Z,14.50
2022-08-26T10:34:44.926Z,14.10
2022-08-26T10:37:16.717Z,15.55
2022-08-26T10:40:12.926Z,14.98
2022-08-26T10:42:46.164Z,15.70
2022-08-26T10:45:15.592Z,15.65
2022-08-26T10:48:02.122Z,15.68
2022-08-26T10:50:34.183Z,15.40
2022-08-26T10:53:05.278Z,15.93
2022-08-26T10:55:51.986Z,15.15
2022-08-26T10:58:52.732Z,14.05
2022-08-26T11:01:43.737Z,14.50
2022-08-26T11:04:36.143Z,13.75
2022-08-26T11:07:39.270Z,14.48
2022-08-26T11:10:30.260Z,13.48
2022-08-26T11:13:06.458Z,13.50
2022-08-26T11:15:32.736Z,14.23
2022-08-26T11:18:02.516Z,14.35
2022-08-26T11:20:34.980Z,13.50
2022-08-26T11:23:27.027Z,13.65
2022-08-26T11:25:56.097Z,14.63
2022-08-26T11:28:47.915Z,14.98
2022-08-26T11:31:26.695Z,15.88
2022-08-26T11:33:59.929Z,15.40
2022-08-26T11:36:35.318Z,15.63
2022-08-26T11:39:33.441Z,12.73
2022-08-26T11:42:20.148Z,15.52
2022-08-26T11:44:49.164Z,15.15
2022-08-26T11:47:17.543Z,15.20
2022-08-26T11:49:43.945Z,16.42
2022-08-26T11:52:17.497Z,16.58
2022-08-26T11:55:20.085Z,18.17
2022-08-26T11:57:52.566Z,15.93
2022-08-26T12:00:22.437Z,19.05
2022-08-26T12:02:50.155Z,18.48
2022-08-26T12:05:31.738Z,20.65
2022-08-26T12:08:02.776Z,19.52
2022-08-26T12:10:33.526Z,17.40
2022-08-26T12:13:02.413Z,18.08
2022-08-26T12:15:31.514Z,20.27
2022-08-26T12:18:00.310Z,19.52
2022-08-26T12:20:48.205Z,19.63
2022-08-26T12:23:45.149Z,18.25
2022-08-26T12:26:30.754Z,19.38
2022-08-26T12:28:58.262Z,17.58
2022-08-26T12:31:32.452Z,18.58
2022-08-26T12:34:00.874Z,16.17
2022-08-26T12:36:48.019Z,14.48
2022-08-26T12:39:36.175Z,15.15
2022-08-26T12:42:13.247Z,13.85
2022-08-26T12:44:58.526Z,12.98
2022-08-26T12:47:41.784Z,11.52
2022-08-26T12:50:32.826Z,11.15
2022-08-26T12:52:59.162Z,12.20
2022-08-26T12:55:34.226Z,10.43
2022-08-26T12:58:16.221Z,10.15
2022-08-26T13:00:48.058Z,10.65
2022-08-26T13:03:29.560Z,11.57
2022-08-26T13:06:15.504Z,10.63
2022-08-26T13:09:08.530Z,10.88
2022-08-26T13:11:40.676Z,10.52
2022-08-26T13:14:18.408Z,10.85
2022-08-26T13:16:51.549Z,10.80
2022-08-26T13:19:20.815Z,12.13
2022-08-26T13:21:48.910Z,12.20
2022-08-26T13:24:19.510Z,11.73
2022-08-26T13:26:48.878Z,10.15
2022-08-26T13:29:15.951Z,10.00
2022-08-26T13:31:44.515Z,10.15
2022-08-26T13:34:14.783Z,11.07
2022-08-26T13:36:44.807Z,10.10
2022-08-26T13:39:11.982Z,11.52
2022-08-26T13:41:38.405Z,14.75
2022-08-26T13:44:05.603Z,14.88
2022-08-26T13:46:32.107Z,13.80
2022-08-26T13:48:58.936Z,13.82
2022-08-26T13:51:26.534Z,15.40
2022-08-26T13:53:53.658Z,14.90
2022-08-26T13:56:21.358Z,14.27
2022-08-26T13:58:47.721Z,15.80
2022-08-26T14:01:17.138Z,16.02
2022-08-26T14:03:43.649Z,15.18
2022-08-26T14:06:10.561Z,15.73
2022-08-26T14:08:38.072Z,15.38
2022-08-26T14:11:04.476Z,15.48
2022-08-26T14:13:30.854Z,15.95
2022-08-26T14:15:59.558Z,16.92
2022-08-26T14:18:31.034Z,16.40
2022-08-26T14:20:58.762Z,17.17
2022-08-26T14:23:25.851Z,16.80
2022-08-26T14:25:52.447Z,17.02
2022-08-26T14:28:19.230Z,15.15
2022-08-26T14:30:51.573Z,17.15
2022-08-26T14:33:20.385Z,15.55
2022-08-26T14:35:47.911Z,15.40
2022-08-26T14:38:16.402Z,14.60
2022-08-26T14:40:44.791Z,14.60
2022-08-26T14:43:13.746Z,14.07
2022-08-26T14:45:44.092Z,13.65
2022-08-26T14:48:10.591Z,13.63
2022-08-26T14:50:37.007Z,12.88
2022-08-26T14:53:21.918Z,15.70
2022-08-26T14:55:48.312Z,15.30
2022-08-26T14:58:14.682Z,16.17
2022-08-26T15:00:41.065Z,15.20
2022-08-26T15:03:07.605Z,15.95
2022-08-26T15:05:34.206Z,15.93
2022-08-26T15:08:02.025Z,15.70
2022-08-26T15:10:28.427Z,14.85
2022-08-26T15:12:54.788Z,15.27
2022-08-26T15:15:21.137Z,13.70
2022-08-26T15:17:47.524Z,13.93
2022-08-26T15:20:15.904Z,13.88
2022-08-26T15:22:43.063Z,13.20
2022-08-26T15:25:10.559Z,13.23
2022-08-26T15:27:37.055Z,13.23
2022-08-26T15:30:09.311Z,12.18
2022-08-26T15:32:36.066Z,12.35
2022-08-26T15:35:06.837Z,12.27
2022-08-26T15:37:35.878Z,12.27
2022-08-26T15:40:02.504Z,11.82
2022-08-26T15:42:29.154Z,11.05
2022-08-26T15:44:55.613Z,11.40
2022-08-26T15:47:23.614Z,11.60
2022-08-26T15:49:50.026Z,11.90
2022-08-26T15:52:16.939Z,10.90
2022-08-26T15:54:43.327Z,10.85
2022-08-26T15:57:12.373Z,11.38
2022-08-26T15:59:40.093Z,10.73
2022-08-26T16:02:07.188Z,9.38
2022-08-26T16:04:33.654Z,10.60
2022-08-26T16:07:00.121Z,10.43
2022-08-26T16:09:27.674Z,12.23
2022-08-26T16:11:56.672Z,12.27
2022-08-26T16:14:23.720Z,12.77
2022-08-26T16:16:50.433Z,13.30
2022-08-26T16:19:17.408Z,13.43
2022-08-26T16:21:44.001Z,15.55
2022-08-26T16:24:10.437Z,16.50
2022-08-26T16:26:38.150Z,17.15
2022-08-26T16:29:07.516Z,19.05
2022-08-26T16:31:34.277Z,20.42
2022-08-26T16:34:00.823Z,20.95
2022-08-26T16:36:27.212Z,23.05
2022-08-26T16:38:56.044Z,24.48
2022-08-26T16:41:23.791Z,26.67
2022-08-26T16:43:50.337Z,27.02
2022-08-26T16:46:17.063Z,26.88
2022-08-26T16:48:44.058Z,27.23
2022-08-26T16:51:16.136Z,28.35
2022-08-26T16:53:43.285Z,28.13
2022-08-26T16:56:16.856Z,28.42
2022-08-26T16:58:43.497Z,29.15
2022-08-26T17:01:10.497Z,28.30
2022-08-26T17:03:37.190Z,27.27
2022-08-26T17:06:03.625Z,26.65
2022-08-26T17:08:30.280Z,27.85
2022-08-26T17:10:59.178Z,27.70
2022-08-26T17:13:34.926Z,28.13
2022-08-26T17:16:04.631Z,27.52
2022-08-26T17:18:31.290Z,26.80
2022-08-26T17:21:01.920Z,27.40
2022-08-26T17:23:28.283Z,25.42
2022-08-26T17:25:54.864Z,27.30
2022-08-26T17:28:21.232Z,25.35
2022-08-26T17:30:47.673Z,26.42
2022-08-26T17:33:14.086Z,25.70
2022-08-26T17:35:43.553Z,24.23
2022-08-26T17:38:10.150Z,24.77
2022-08-26T17:40:36.821Z,24.60
2022-08-26T17:43:03.316Z,24.85
2022-08-26T17:45:29.690Z,24.95
2022-08-26T17:47:56.183Z,25.77
2022-08-26T17:50:23.381Z,25.92
2022-08-26T17:52:49.758Z,22.83
2022-08-26T17:55:17.723Z,23.30
2022-08-26T17:57:53.563Z,22.15
2022-08-26T18:00:22.449Z,21.77
2022-08-26T18:02:48.816Z,22.20
2022-08-26T18:05:17.385Z,22.15
2022-08-26T18:07:44.773Z,20.60
2022-08-26T18:10:13.730Z,21.85
2022-08-26T18:12:41.451Z,21.05
2022-08-26T18:15:09.256Z,21.30
2022-08-26T18:17:35.851Z,19.67
2022-08-26T18:20:02.568Z,19.25
2022-08-26T18:22:28.997Z,20.10
2022-08-26T18:24:58.727Z,18.85
2022-08-26T18:27:25.510Z,18.60
2022-08-26T18:29:51.979Z,18.38
2022-08-26T18:32:18.496Z,17.90
2022-08-26T18:34:44.882Z,17.58
2022-08-26T18:39:40.195Z,16.35
2022-08-26T18:42:06.937Z,18.67
2022-08-26T18:44:33.530Z,18.15
2022-08-26T18:47:00.110Z,19.85
2022-08-26T18:49:26.704Z,20.08
2022-08-26T18:51:53.191Z,18.08
2022-08-26T18:56:47.267Z,16.70
2022-08-26T18:59:13.896Z,17.63
2022-08-26T19:01:42.212Z,17.08
2022-08-26T19:04:12.856Z,16.38
2022-08-26T19:06:42.429Z,16.30
2022-08-26T19:09:10.759Z,16.05
2022-08-26T19:11:42.984Z,16.17
2022-08-26T19:14:13.450Z,16.02
2022-08-26T19:16:41.920Z,17.15
2022-08-26T19:19:08.562Z,16.15
2022-08-26T19:21:36.088Z,15.18
2022-08-26T19:24:04.569Z,14.75
2022-08-26T19:26:31.769Z,16.75
2022-08-26T19:28:58.866Z,16.25
2022-08-26T19:31:25.691Z,16.30
2022-08-26T19:33:52.167Z,16.02
2022-08-26T19:36:22.102Z,15.80
2022-08-26T19:38:48.837Z,14.20
2022-08-26T19:41:18.630Z,15.48
2022-08-26T19:43:46.285Z,15.00
2022-08-26T19:46:16.485Z,14.45
2022-08-26T19:48:46.652Z,14.93
2022-08-26T19:51:15.665Z,13.25
2022-08-26T19:53:43.613Z,13.38
2022-08-26T19:56:11.046Z,12.27
2022-08-26T19:58:37.419Z,13.07
2022-08-26T20:01:05.347Z,12.98
2022-08-26T20:03:32.806Z,12.75
2022-08-26T20:05:59.815Z,11.13
2022-08-26T20:08:26.213Z,11.55
2022-08-26T20:10:53.897Z,12.98
2022-08-26T20:13:21.875Z,12.65
2022-08-26T20:15:48.377Z,13.23
2022-08-26T20:18:33.341Z,11.38
2022-08-26T20:21:18.250Z,12.10
2022-08-26T20:23:44.703Z,11.20
2022-08-26T20:26:11.098Z,10.98
2022-08-26T20:28:37.554Z,10.80
2022-08-26T20:31:04.115Z,10.90
2022-08-26T20:33:31.993Z,11.20
2022-08-26T20:36:12.805Z,11.30
2022-08-26T20:38:39.155Z,10.57
2022-08-26T20:41:05.778Z,10.93
2022-08-26T20:43:32.441Z,10.77
2022-08-26T20:45:58.868Z,11.32
2022-08-26T20:48:25.480Z,11.13
2022-08-26T20:50:56.702Z,11.30
2022-08-26T20:53:24.323Z,10.27
2022-08-26T20:55:53.674Z,10.88
2022-08-26T20:58:23.373Z,10.48
2022-08-26T21:00:50.010Z,10.75
2022-08-26T21:03:16.594Z,10.73
2022-08-26T21:05:43.095Z,10.43
2022-08-26T21:08:09.866Z,10.98
2022-08-26T21:10:39.247Z,11.35
2022-08-26T21:13:06.101Z,11.13
2022-08-26T21:15:32.505Z,10.60
2022-08-26T21:17:59.339Z,10.23
2022-08-26T21:20:25.993Z,10.57
2022-08-26T21:22:54.145Z,9.60
2022-08-26T21:25:20.858Z,10.48
2022-08-26T21:27:47.250Z,10.60
2022-08-26T21:30:14.952Z,9.75
2022-08-26T21:32:41.417Z,11.48
2022-08-26T21:35:08.484Z,8.50
2022-08-26T21:37:34.930Z,8.70
2022-08-26T21:40:01.889Z,10.05
2022-08-26T21:42:33.031Z,9.10
2022-08-26T21:45:00.339Z,10.70
2022-08-26T21:47:27.186Z,9.85
2022-08-26T21:49:53.897Z,10.18
2022-08-26T21:52:21.250Z,9.50
2022-08-26T21:54:49.316Z,10.38
2022-08-26T21:57:16.665Z,9.95
2022-08-26T21:59:43.399Z,9.98
2022-08-26T22:02:11.064Z,10.13
2022-08-26T22:04:37.570Z,9.13
2022-08-26T22:07:04.182Z,8.50
2022-08-26T22:09:31.547Z,9.15
2022-08-26T22:11:58.694Z,10.35
2022-08-26T22:14:30.621Z,10.43
2022-08-26T22:16:58.612Z,10.07
2022-08-26T22:19:25.041Z,9.40
2022-08-26T22:21:53.758Z,9.65
2022-08-26T22:24:21.913Z,9.65
2022-08-26T22:26:48.778Z,10.13
2022-08-26T22:29:15.324Z,8.65
2022-08-26T22:31:43.349Z,9.57
2022-08-26T22:34:12.802Z,9.93
2022-08-26T22:36:43.740Z,9.43
2022-08-26T22:39:12.371Z,10.32
2022-08-26T22:41:39.078Z,9.05
2022-08-26T22:44:06.032Z,9.55
2022-08-26T22:46:34.722Z,8.73
2022-08-26T22:49:01.183Z,9.73
2022-08-26T22:51:28.076Z,9.00
2022-08-26T22:53:54.443Z,9.45
2022-08-26T22:56:21.333Z,9.10
2022-08-26T22:58:47.741Z,9.20
2022-08-26T23:01:15.393Z,8.73
2022-08-26T23:03:41.951Z,9.20
2022-08-26T23:06:11.942Z,8.20
2022-08-26T23:08:40.263Z,8.43
2022-08-26T23:11:10.665Z,9.45
2022-08-26T23:13:37.868Z,8.23
2022-08-26T23:16:06.954Z,8.82
2022-08-26T23:18:33.514Z,7.68
2022-08-26T23:20:59.901Z,7.38
2022-08-26T23:23:27.373Z,8.48
2022-08-26T23:25:54.864Z,8.38
2022-08-26T23:28:21.895Z,8.95
2022-08-26T23:30:48.641Z,8.52
2022-08-26T23:33:15.043Z,7.78
2022-08-26T23:35:41.763Z,7.82
2022-08-26T23:38:09.767Z,8.65
2022-08-26T23:40:38.713Z,7.93
2022-08-26T23:43:07.207Z,8.32
2022-08-26T23:45:34.357Z,8.07
2022-08-26T23:48:01.018Z,8.95
2022-08-26T23:50:47.964Z,7.63
2022-08-26T23:53:19.861Z,7.90
2022-08-26T23:55:50.823Z,7.10
2022-08-26T23:58:19.152Z,8.68
